Time;durP1;ratioP1;P1;durP2;ratioP2;P2;SDS_P1;SDS_P2;PMS_P1;PMS_P2;Temp;Humidity;BMP_temperature;BMP_pressure;BME280_temperature;BME280_humidity;BME280_pressure;Samples;Min_cycle;Max_cycle;Signal;HPM_P1;HPM_P2
2022/07/13 04:01:31;;;;;;;3.10;2.50;;;17.80;99.90;;;;;;5455534;23;20551;-65
2022/07/13 04:03:58;;;;;;;3.30;2.93;;;17.80;99.90;;;;;;4996305;28;20449;-65
2022/07/13 04:06:25;;;;;;;2.93;2.70;;;17.80;99.90;;;;;;4996501;28;20449;-66
2022/07/13 04:08:52;;;;;;;4.77;2.80;;;17.70;99.90;;;;;;4996491;28;20826;-67
2022/07/13 04:11:19;;;;;;;4.63;3.20;;;17.60;99.90;;;;;;4996161;28;20981;-66
2022/07/13 04:13:45;;;;;;;3.37;3.17;;;17.60;99.90;;;;;;4996434;28;20453;-67
2022/07/13 04:16:12;;;;;;;2.83;2.63;;;17.60;99.90;;;;;;4996283;28;20465;-66
2022/07/13 04:18:40;;;;;;;3.27;3.07;;;17.60;99.90;;;;;;4997026;28;20461;-66
2022/07/13 04:21:07;;;;;;;3.23;2.97;;;17.50;99.90;;;;;;4996224;28;20474;-66
2022/07/13 04:23:34;;;;;;;3.30;2.63;;;17.40;99.90;;;;;;4995830;28;20967;-67
2022/07/13 04:26:01;;;;;;;6.07;3.20;;;17.40;99.90;;;;;;4996124;28;20458;-67
2022/07/13 04:28:27;;;;;;;4.07;2.90;;;17.40;99.90;;;;;;4996227;28;20462;-66
2022/07/13 04:30:54;;;;;;;3.57;3.27;;;17.40;99.90;;;;;;4996234;28;20485;-67
2022/07/13 04:33:21;;;;;;;2.83;2.73;;;17.40;99.90;;;;;;4995720;28;20971;-67
2022/07/13 04:35:49;;;;;;;4.40;3.20;;;17.40;99.90;;;;;;4995896;28;20457;-67
2022/07/13 04:38:16;;;;;;;3.03;2.70;;;17.40;99.90;;;;;;4995923;28;20492;-66
2022/07/13 04:40:42;;;;;;;2.67;2.57;;;17.50;99.90;;;;;;4995766;28;20500;-65
2022/07/13 04:43:09;;;;;;;3.50;2.60;;;17.50;99.90;;;;;;4995604;28;20544;-66
2022/07/13 04:45:36;;;;;;;3.67;2.67;;;17.70;99.90;;;;;;4995715;28;20484;-66
2022/07/13 04:48:03;;;;;;;10.33;2.73;;;17.70;99.90;;;;;;4995436;28;20453;-66
2022/07/13 04:50:30;;;;;;;4.27;3.27;;;17.80;99.90;;;;;;4997922;28;20489;-65
2022/07/13 04:52:58;;;;;;;2.80;2.60;;;18.00;99.90;;;;;;5007511;28;20461;-66
2022/07/13 04:55:26;;;;;;;2.73;2.53;;;18.10;99.90;;;;;;5000595;28;20846;-65
2022/07/13 04:57:54;;;;;;;3.20;3.00;;;18.20;99.90;;;;;;4995348;28;20453;-66
2022/07/13 05:00:20;;;;;;;2.90;2.60;;;18.30;99.90;;;;;;4995131;28;20493;-66
2022/07/13 05:02:47;;;;;;;2.50;2.30;;;18.30;99.90;;;;;;4995626;28;20445;-65
2022/07/13 05:05:14;;;;;;;5.57;2.47;;;18.30;99.90;;;;;;4995176;28;20457;-65
2022/07/13 05:07:41;;;;;;;3.27;2.97;;;18.30;99.90;;;;;;4995131;28;20454;-65
2022/07/13 05:10:10;;;;;;;4.10;2.90;;;18.20;99.90;;;;;;4995198;28;20856;-66
2022/07/13 05:12:40;;;;;;;2.57;2.37;;;18.20;99.90;;;;;;4994892;28;20956;-65
2022/07/13 05:15:09;;;;;;;2.90;2.40;;;18.10;99.90;;;;;;4995036;28;20521;-65
2022/07/13 05:17:35;;;;;;;4.77;2.47;;;18.00;99.90;;;;;;4994711;28;20979;-65
2022/07/13 05:20:02;;;;;;;3.97;2.27;;;18.10;99.90;;;;;;4994693;28;20457;-65
2022/07/13 05:22:30;;;;;;;2.77;2.57;;;18.20;99.90;;;;;;4994846;28;20481;-65
2022/07/13 05:24:57;;;;;;;12.27;2.50;;;18.20;99.90;;;;;;4994579;28;20458;-65
2022/07/13 05:27:25;;;;;;;3.50;2.57;;;18.40;99.90;;;;;;4994802;28;20458;-65
2022/07/13 05:29:51;;;;;;;4.07;2.40;;;18.50;99.90;;;;;;4994758;28;20628;-65
2022/07/13 05:32:18;;;;;;;2.57;2.37;;;18.70;99.90;;;;;;4994719;28;20481;-65
2022/07/13 05:34:45;;;;;;;2.80;2.67;;;18.90;99.90;;;;;;4994679;28;20548;-65
2022/07/13 05:37:12;;;;;;;2.50;2.40;;;19.10;99.90;;;;;;4994331;28;20941;-65
2022/07/13 05:39:42;;;;;;;8.40;2.43;;;19.30;99.90;;;;;;4994361;28;20936;-65
2022/07/13 05:42:09;;;;;;;3.90;2.43;;;19.50;99.90;;;;;;4994531;28;20473;-65
2022/07/13 05:44:37;;;;;;;2.30;2.17;;;19.70;99.90;;;;;;4994257;28;20530;-65
2022/07/13 05:47:03;;;;;;;3.00;2.27;;;19.80;99.90;;;;;;4994527;28;20454;-65
2022/07/13 05:49:30;;;;;;;3.83;1.90;;;19.90;99.90;;;;;;4994398;28;20478;-65
2022/07/13 05:51:57;;;;;;;2.43;2.33;;;20.10;99.90;;;;;;4994193;28;20980;-65
2022/07/13 05:54:23;;;;;;;3.47;1.80;;;20.30;99.90;;;;;;4994466;28;20453;-65
2022/07/13 05:56:50;;;;;;;2.43;2.33;;;20.40;99.90;;;;;;4994451;28;20462;-65
2022/07/13 05:59:17;;;;;;;1.90;1.80;;;20.40;99.90;;;;;;4994378;28;20453;-65
2022/07/13 06:01:45;;;;;;;2.30;2.20;;;20.30;99.90;;;;;;4994772;28;20489;-65
2022/07/13 06:04:12;;;;;;;3.53;3.20;;;20.40;99.90;;;;;;4994283;28;20454;-65
2022/07/13 06:06:38;;;;;;;2.07;1.97;;;20.50;99.90;;;;;;4993972;28;20858;-65
2022/07/13 06:09:05;;;;;;;2.57;2.37;;;20.60;99.90;;;;;;4993499;28;20489;-65
2022/07/13 06:11:32;;;;;;;2.30;2.20;;;20.70;99.90;;;;;;4994063;28;20482;-65
2022/07/13 06:13:59;;;;;;;2.53;2.00;;;20.80;99.90;;;;;;4993898;28;20457;-65
2022/07/13 06:16:26;;;;;;;2.50;2.27;;;20.80;99.90;;;;;;4994123;28;20458;-65
2022/07/13 06:18:54;;;;;;;3.87;2.40;;;21.00;99.90;;;;;;4994097;28;20457;-65
2022/07/13 06:21:20;;;;;;;4.27;2.23;;;21.00;99.90;;;;;;4994021;28;20501;-65
2022/07/13 06:23:47;;;;;;;2.53;1.90;;;21.10;99.90;;;;;;4994158;28;20460;-65
2022/07/13 06:26:14;;;;;;;1.83;1.73;;;21.20;99.90;;;;;;4993783;28;20454;-65
2022/07/13 06:28:41;;;;;;;2.40;2.00;;;21.30;99.90;;;;;;4994147;28;20454;-65
2022/07/13 06:31:07;;;;;;;4.83;1.87;;;21.40;99.90;;;;;;4993618;28;20489;-65
2022/07/13 06:33:35;;;;;;;2.53;1.90;;;21.60;99.90;;;;;;4994166;28;20454;-65
2022/07/13 06:36:03;;;;;;;2.97;1.83;;;21.70;99.90;;;;;;4993982;28;20540;-65
2022/07/13 06:38:30;;;;;;;1.80;1.70;;;21.80;99.90;;;;;;4994166;28;20465;-65
2022/07/13 06:40:56;;;;;;;2.00;1.80;;;21.90;99.90;;;;;;4994011;28;20474;-65
2022/07/13 06:43:23;;;;;;;4.13;1.83;;;21.90;99.90;;;;;;4994152;28;20454;-65
2022/07/13 06:45:50;;;;;;;2.10;2.00;;;22.00;99.90;;;;;;4994065;28;20457;-65
2022/07/13 06:48:16;;;;;;;1.43;1.43;;;22.10;99.90;;;;;;4994100;28;20524;-65
2022/07/13 06:50:43;;;;;;;4.07;2.20;;;22.20;99.90;;;;;;4993807;28;20481;-65
2022/07/13 06:53:11;;;;;;;2.43;1.80;;;22.30;99.90;;;;;;4993875;28;20454;-65
2022/07/13 06:55:38;;;;;;;1.80;1.70;;;22.50;99.90;;;;;;4993843;28;20461;-66
2022/07/13 06:58:05;;;;;;;2.17;1.80;;;22.80;99.90;;;;;;4993923;28;20465;-65
2022/07/13 07:00:32;;;;;;;4.93;2.00;;;23.40;99.90;;;;;;4993621;28;20489;-65
2022/07/13 07:02:58;;;;;;;2.50;1.50;;;23.90;99.90;;;;;;4993901;28;20439;-65
2022/07/13 07:05:25;;;;;;;4.27;1.60;;;24.50;99.90;;;;;;4993737;28;20458;-65
2022/07/13 07:07:52;;;;;;;4.47;1.37;;;25.30;99.90;;;;;;4993980;28;20454;-66
2022/07/13 07:10:20;;;;;;;2.60;1.47;;;26.10;99.90;;;;;;4995045;28;20477;-66
2022/07/13 07:12:46;;;;;;;1.70;1.60;;;26.90;98.90;;;;;;4994039;28;20454;-67
2022/07/13 07:15:13;;;;;;;1.20;1.10;;;27.50;97.70;;;;;;4993930;28;20462;-66
2022/07/13 07:17:47;;;;;;;3.40;1.10;;;28.30;96.50;;;;;;4993791;28;20457;-66
2022/07/13 07:20:14;;;;;;;1.20;1.10;;;29.00;92.90;;;;;;4993885;28;20449;-66
2022/07/13 07:22:41;;;;;;;1.50;1.40;;;29.40;90.20;;;;;;4997177;28;20520;-66
2022/07/13 07:25:09;;;;;;;1.70;1.13;;;29.80;85.90;;;;;;4997165;28;20457;-66
2022/07/13 07:27:37;;;;;;;6.03;1.47;;;30.10;83.70;;;;;;4996977;28;20504;-66
2022/07/13 07:30:05;;;;;;;4.93;1.27;;;30.40;80.20;;;;;;4996820;28;20481;-66
2022/07/13 07:32:32;;;;;;;1.50;1.40;;;30.50;80.40;;;;;;4996564;28;20473;-66
2022/07/13 07:34:58;;;;;;;1.30;1.20;;;30.90;76.70;;;;;;4997102;28;20457;-66
2022/07/13 07:37:26;;;;;;;3.00;1.17;;;31.20;75.40;;;;;;4997181;28;20461;-66
2022/07/13 07:39:53;;;;;;;1.40;1.30;;;31.50;73.00;;;;;;4996854;28;20964;-66
2022/07/13 07:42:20;;;;;;;2.00;1.17;;;31.70;70.90;;;;;;4996804;28;20477;-66
2022/07/13 07:44:48;;;;;;;2.03;1.30;;;31.90;68.20;;;;;;4996734;28;20512;-66
2022/07/13 07:47:16;;;;;;;1.20;1.20;;;32.20;68.00;;;;;;4996896;28;20508;-66
2022/07/13 07:49:42;;;;;;;2.43;1.47;;;32.30;66.80;;;;;;4997269;28;20453;-66
2022/07/13 07:52:09;;;;;;;2.93;1.30;;;32.10;64.90;;;;;;5013147;28;20977;-66
2022/07/13 07:54:36;;;;;;;2.97;1.47;;;31.70;66.00;;;;;;5004256;28;20469;-66
2022/07/13 07:57:03;;;;;;;1.77;1.50;;;31.80;68.70;;;;;;4996703;28;20454;-66
2022/07/13 07:59:29;;;;;;;3.33;1.37;;;32.00;66.40;;;;;;4996302;28;20948;-66
2022/07/13 08:01:59;;;;;;;3.23;1.40;;;32.60;66.00;;;;;;4996002;28;20489;-66
2022/07/13 08:04:26;;;;;;;2.33;1.23;;;33.00;63.60;;;;;;4996534;28;20463;-66
2022/07/13 08:06:53;;;;;;;2.43;1.00;;;32.90;61.40;;;;;;4996282;28;20457;-66
2022/07/13 08:09:20;;;;;;;2.90;1.20;;;32.80;61.20;;;;;;4996268;28;20460;-66
2022/07/13 08:11:47;;;;;;;1.30;1.30;;;32.70;61.20;;;;;;4996098;28;20485;-66
2022/07/13 08:14:14;;;;;;;2.37;0.93;;;32.60;61.60;;;;;;4996103;28;20453;-66
2022/07/13 08:16:41;;;;;;;1.10;1.10;;;32.60;59.20;;;;;;4996245;28;20492;-67
2022/07/13 08:19:09;;;;;;;1.70;1.20;;;32.50;59.10;;;;;;4996326;28;20461;-66
2022/07/13 08:21:36;;;;;;;1.20;1.20;;;32.80;59.20;;;;;;4995892;28;20500;-66
2022/07/13 08:24:04;;;;;;;4.87;1.40;;;32.90;59.40;;;;;;4995615;28;20460;-67
2022/07/13 08:26:31;;;;;;;1.20;1.20;;;32.80;58.10;;;;;;4995846;28;20453;-66
2022/07/13 08:28:59;;;;;;;1.87;1.47;;;32.70;58.70;;;;;;4995425;28;20460;-66
2022/07/13 08:31:26;;;;;;;1.33;1.00;;;32.70;58.60;;;;;;4995669;28;20988;-65
2022/07/13 08:39:26;;;;;;;2.40;1.20;;;31.70;60.70;;;;;;4995571;28;20421;-66
2022/07/13 08:41:53;;;;;;;2.30;1.40;;;31.90;61.60;;;;;;4995487;28;20528;-67
2022/07/13 08:44:19;;;;;;;4.20;1.60;;;32.00;61.00;;;;;;4995610;28;20454;-66
2022/07/13 08:46:46;;;;;;;3.50;1.40;;;32.10;61.10;;;;;;4995105;28;20932;-66
2022/07/13 08:49:13;;;;;;;1.17;0.90;;;32.50;58.80;;;;;;4995309;28;20461;-66
2022/07/13 08:51:44;;;;;;;3.63;1.10;;;33.00;57.30;;;;;;4997047;28;20481;-66
2022/07/13 08:54:11;;;;;;;1.03;1.03;;;33.40;56.30;;;;;;4995571;28;20448;-66
2022/07/13 08:56:40;;;;;;;3.50;0.90;;;34.10;55.10;;;;;;4995015;28;20867;-66
2022/07/13 08:59:07;;;;;;;1.63;1.10;;;34.70;52.60;;;;;;4996210;28;20458;-66
2022/07/13 09:01:34;;;;;;;3.50;1.13;;;35.10;52.90;;;;;;4994871;28;20613;-66
2022/07/13 09:04:00;;;;;;;5.73;1.10;;;35.30;52.40;;;;;;4995244;28;20453;-66
2022/07/13 09:06:47;;;;;;;1.30;1.10;;;35.30;51.60;;;;;;4995219;28;20512;-66
2022/07/13 09:09:35;;;;;;;4.10;1.10;;;35.40;51.50;;;;;;4995064;28;20499;-66
2022/07/13 09:12:15;;;;;;;1.60;1.03;;;35.50;51.30;;;;;;4994998;28;20481;-66
2022/07/13 09:14:42;;;;;;;1.43;1.20;;;35.90;51.90;;;;;;4995156;28;20437;-66
2022/07/13 09:17:09;;;;;;;1.10;0.97;;;36.40;49.80;;;;;;4995045;28;20457;-66
2022/07/13 09:19:38;;;;;;;3.20;1.20;;;36.70;48.20;;;;;;4995025;28;20456;-66
2022/07/13 09:22:13;;;;;;;1.10;1.10;;;37.00;47.80;;;;;;4995208;28;20509;-67
2022/07/13 09:24:44;;;;;;;5.30;2.57;;;37.40;47.80;;;;;;4994866;28;20457;-67
2022/07/13 09:27:12;;;;;;;2.00;1.40;;;37.70;46.20;;;;;;4994816;28;20457;-67
2022/07/13 09:29:38;;;;;;;1.90;1.40;;;38.20;46.40;;;;;;4994514;28;20456;-66
2022/07/13 09:32:08;;;;;;;1.90;0.90;;;38.60;45.10;;;;;;4994468;28;20508;-66
2022/07/13 09:34:50;;;;;;;1.50;1.07;;;38.60;42.90;;;;;;4994710;28;20445;-66
2022/07/13 09:37:20;;;;;;;4.07;0.90;;;38.30;42.70;;;;;;4994260;28;20771;-67
2022/07/13 09:39:56;;;;;;;1.43;1.10;;;38.30;42.40;;;;;;4994406;28;20863;-66
2022/07/13 09:42:26;;;;;;;1.10;1.00;;;38.20;40.50;;;;;;4994613;28;20469;-66
2022/07/13 09:47:42;;;;;;;3.93;1.10;;;38.10;43.30;;;;;;4994603;28;20416;-67
2022/07/13 09:50:09;;;;;;;2.00;1.10;;;38.60;42.40;;;;;;4994554;28;20485;-67
2022/07/13 09:52:38;;;;;;;1.70;1.70;;;38.60;40.70;;;;;;4994032;28;20866;-66
2022/07/13 09:55:10;;;;;;;1.23;1.00;;;38.90;41.60;;;;;;4994286;28;20467;-66
2022/07/13 09:57:44;;;;;;;1.07;1.07;;;39.20;37.30;;;;;;4994495;28;20437;-67
2022/07/13 10:00:14;;;;;;;1.87;1.10;;;39.20;37.30;;;;;;4994312;28;20437;-67
2022/07/13 10:02:42;;;;;;;1.13;1.13;;;39.20;36.10;;;;;;4994626;28;20237;-67
2022/07/13 10:05:10;;;;;;;1.40;0.93;;;39.00;37.90;;;;;;4994376;28;20466;-67
2022/07/13 10:07:40;;;;;;;0.93;0.90;;;39.40;35.40;;;;;;4994344;28;20213;-67
2022/07/13 10:10:07;;;;;;;1.03;1.03;;;39.50;36.20;;;;;;4994030;28;20731;-67
2022/07/13 10:12:37;;;;;;;1.37;1.20;;;40.00;35.10;;;;;;4994189;28;20222;-67
2022/07/13 10:15:04;;;;;;;1.25;1.25;;;40.70;36.10;;;;;;4994290;28;20194;-67
2022/07/13 10:17:31;;;;;;;2.03;1.50;;;41.10;36.20;;;;;;4993753;28;20199;-67
2022/07/13 10:20:02;;;;;;;1.25;1.00;;;41.80;35.70;;;;;;4994124;28;20198;-67
2022/07/13 10:22:33;;;;;;;2.05;1.52;;;42.10;35.20;;;;;;4993867;28;20719;-67
2022/07/13 10:25:01;;;;;;;2.45;1.13;;;42.50;35.00;;;;;;4994239;28;20186;-67
2022/07/13 10:27:30;;;;;;;1.48;1.30;;;42.50;33.20;;;;;;4994289;28;20198;-67
2022/07/13 10:30:00;;;;;;;1.00;1.00;;;41.90;33.40;;;;;;4994187;28;20229;-67
2022/07/13 10:32:28;;;;;;;2.72;1.10;;;41.50;32.80;;;;;;4993948;28;20221;-67
2022/07/13 10:34:58;;;;;;;5.05;1.20;;;41.20;32.00;;;;;;4994253;28;20205;-67
2022/07/13 10:37:26;;;;;;;1.95;1.00;;;41.20;33.30;;;;;;4994183;28;20198;-67
2022/07/13 10:40:19;;;;;;;0.90;0.90;;;41.50;32.10;;;;;;4994223;28;20230;-66
2022/07/13 10:43:17;;;;;;;4.07;1.17;;;41.40;31.60;;;;;;4979541;28;20202;-67
2022/07/13 10:45:52;;;;;;;1.67;0.95;;;41.80;32.90;;;;;;4994355;28;20551;-67
2022/07/13 10:48:42;;;;;;;1.10;1.00;;;41.80;32.40;;;;;;4994322;28;20634;-67
2022/07/13 10:51:18;;;;;;;1.10;1.00;;;41.50;30.90;;;;;;4993987;28;20276;-68
2022/07/13 10:54:09;;;;;;;1.65;1.55;;;40.90;30.30;;;;;;4995141;28;20224;-68
2022/07/13 10:56:37;;;;;;;0.70;0.70;;;40.70;30.20;;;;;;4996728;28;20186;-68
2022/07/13 10:59:05;;;;;;;1.77;0.90;;;40.50;31.20;;;;;;4997922;28;20562;-67
2022/07/13 11:01:50;;;;;;;0.90;0.90;;;40.40;31.40;;;;;;4997513;28;20257;-68
2022/07/13 11:04:19;;;;;;;1.80;0.97;;;40.20;31.30;;;;;;5008255;28;20186;-67
2022/07/13 11:07:06;;;;;;;0.90;0.90;;;40.00;32.80;;;;;;5015803;28;20263;-68
2022/07/13 11:09:32;;;;;;;1.13;1.00;;;39.30;32.40;;;;;;4999458;28;20210;-68
2022/07/13 11:12:00;;;;;;;0.87;0.63;;;38.50;32.30;;;;;;4997620;28;20249;-67
2022/07/13 11:14:49;;;;;;;1.30;1.30;;;38.10;34.40;;;;;;4997313;28;20452;-68
2022/07/13 11:17:18;;;;;;;4.50;1.17;;;37.40;33.80;;;;;;4997153;28;20975;-67
2022/07/13 11:20:00;;;;;;;1.03;0.93;;;37.30;33.70;;;;;;4997190;28;20468;-67
2022/07/13 11:25:13;;;;;;;1.20;0.83;;;37.20;34.30;;;;;;4997342;28;20894;-67
2022/07/13 11:25:25;;;;;;;3.60;1.20;;;37.30;32.80;;;;;;4996963;28;20445;-68
2022/07/13 11:28:28;;;;;;;3.27;0.97;;;37.70;33.30;;;;;;4997387;28;20445;-68
2022/07/13 11:30:56;;;;;;;1.30;1.20;;;38.00;32.20;;;;;;4996837;28;20872;-67
2022/07/13 11:33:23;;;;;;;1.13;0.80;;;38.20;32.70;;;;;;4996915;28;20964;-68
2022/07/13 11:35:51;;;;;;;1.40;1.00;;;38.40;33.70;;;;;;4997205;28;20453;-66
2022/07/13 11:38:19;;;;;;;0.93;0.87;;;38.20;31.10;;;;;;4997390;28;20512;-68
2022/07/13 11:40:47;;;;;;;0.93;0.93;;;38.20;32.20;;;;;;4996768;28;20906;-67
2022/07/13 11:43:15;;;;;;;0.90;0.90;;;38.10;35.40;;;;;;4997011;28;20458;-68
2022/07/13 11:45:43;;;;;;;0.67;0.67;;;37.90;31.40;;;;;;4996855;28;20453;-67
2022/07/13 11:48:14;;;;;;;2.20;0.97;;;37.60;32.20;;;;;;4996920;28;20493;-67
2022/07/13 11:50:45;;;;;;;3.50;0.90;;;37.50;32.60;;;;;;4996822;28;20473;-67
2022/07/13 11:53:31;;;;;;;1.13;0.90;;;37.30;32.90;;;;;;4996662;28;20466;-68
2022/07/13 11:55:59;;;;;;;3.90;0.80;;;37.20;33.30;;;;;;4997454;28;20456;-67
2022/07/13 11:58:31;;;;;;;1.17;0.90;;;36.90;32.20;;;;;;4996606;28;20457;-67
2022/07/13 12:00:58;;;;;;;0.90;0.90;;;36.80;31.70;;;;;;4996507;28;20492;-68
2022/07/13 12:03:27;;;;;;;0.60;0.60;;;36.60;30.70;;;;;;4996596;28;20457;-68
2022/07/13 12:05:58;;;;;;;0.97;0.80;;;36.40;31.00;;;;;;4996515;28;20457;-67
2022/07/13 12:08:25;;;;;;;2.40;0.70;;;36.30;31.00;;;;;;4995631;28;20433;-68
2022/07/13 12:10:53;;;;;;;0.63;0.50;;;36.20;32.00;;;;;;4996519;28;20477;-67
2022/07/13 12:13:20;;;;;;;1.67;0.80;;;36.10;32.90;;;;;;4996541;28;20511;-66
2022/07/13 12:15:48;;;;;;;1.07;0.90;;;36.30;32.40;;;;;;4996622;28;20461;-68
2022/07/13 12:18:17;;;;;;;0.67;0.67;;;36.50;32.00;;;;;;4996045;28;20939;-67
2022/07/13 12:20:44;;;;;;;1.43;0.93;;;36.60;33.50;;;;;;4996099;28;20908;-66
2022/07/13 12:23:10;;;;;;;2.40;0.80;;;36.70;33.30;;;;;;4996105;28;20449;-68
2022/07/13 12:25:39;;;;;;;0.73;0.73;;;36.70;33.30;;;;;;4995578;28;20866;-67
2022/07/13 12:28:08;;;;;;;0.63;0.60;;;36.90;31.00;;;;;;4995832;28;20500;-67
2022/07/13 12:30:37;;;;;;;1.07;0.60;;;36.80;32.00;;;;;;4995932;28;20834;-68
2022/07/13 12:33:07;;;;;;;2.00;0.80;;;36.50;32.00;;;;;;4995820;28;20477;-67
2022/07/13 12:35:36;;;;;;;0.83;0.83;;;36.50;32.60;;;;;;4995974;28;20453;-67
2022/07/13 12:38:05;;;;;;;0.60;0.60;;;36.70;32.60;;;;;;4995525;28;20940;-67
2022/07/13 12:40:42;;;;;;;0.80;0.80;;;36.70;31.40;;;;;;4995977;28;20539;-67
2022/07/13 12:43:17;;;;;;;1.00;1.00;;;36.70;31.90;;;;;;4995877;28;20848;-67
2022/07/13 12:45:45;;;;;;;2.73;1.17;;;36.70;32.10;;;;;;4995717;28;20457;-67
2022/07/13 12:48:18;;;;;;;0.80;0.60;;;36.80;31.20;;;;;;4995787;28;20467;-67
2022/07/13 12:50:59;;;;;;;0.90;0.90;;;36.60;30.90;;;;;;4996115;28;20477;-67
2022/07/13 12:53:26;;;;;;;1.50;0.80;;;36.70;31.20;;;;;;4995531;28;20785;-67
2022/07/13 12:55:56;;;;;;;0.70;0.70;;;36.70;31.10;;;;;;4995381;28;20949;-67
2022/07/13 12:58:43;;;;;;;1.37;0.80;;;36.70;29.80;;;;;;4995479;28;20457;-66
2022/07/13 13:01:10;;;;;;;1.03;1.00;;;36.60;32.80;;;;;;4994729;28;20500;-67
2022/07/13 13:03:38;;;;;;;1.80;0.73;;;36.50;32.10;;;;;;4995203;28;20464;-67
2022/07/13 13:06:05;;;;;;;2.90;1.97;;;36.50;32.20;;;;;;4994973;28;20991;-67
2022/07/13 13:08:32;;;;;;;1.40;0.93;;;36.40;32.40;;;;;;4995273;28;20460;-67
2022/07/13 13:10:59;;;;;;;3.17;0.90;;;36.00;33.30;;;;;;4994920;28;20480;-67
2022/07/13 13:13:25;;;;;;;4.63;0.97;;;35.90;33.60;;;;;;4995133;28;20487;-67
2022/07/13 13:15:52;;;;;;;2.40;0.80;;;35.70;32.30;;;;;;4995252;28;20458;-66
2022/07/13 13:18:19;;;;;;;1.80;1.10;;;35.60;31.00;;;;;;4995085;28;20454;-67
2022/07/13 13:20:47;;;;;;;2.00;0.70;;;35.50;32.70;;;;;;4995452;28;20556;-66
2022/07/13 13:23:14;;;;;;;2.60;0.70;;;35.40;34.70;;;;;;4995491;28;20457;-67
2022/07/13 13:25:41;;;;;;;1.73;0.80;;;35.40;33.10;;;;;;4995331;28;20507;-67
2022/07/13 13:28:07;;;;;;;0.87;0.87;;;35.40;34.80;;;;;;4994866;28;20453;-67
2022/07/13 13:30:46;;;;;;;0.70;0.70;;;35.50;34.80;;;;;;4994925;28;20473;-68
2022/07/13 13:33:14;;;;;;;1.00;1.00;;;35.60;32.00;;;;;;4994967;28;20473;-68
2022/07/13 13:35:41;;;;;;;0.60;0.60;;;35.70;32.50;;;;;;4994684;28;20512;-67
2022/07/13 13:38:10;;;;;;;3.40;1.03;;;35.60;34.10;;;;;;4994664;28;20488;-67
2022/07/13 13:40:37;;;;;;;1.20;0.93;;;35.50;34.20;;;;;;4994683;28;20474;-67
2022/07/13 13:43:04;;;;;;;1.80;0.70;;;35.40;33.60;;;;;;4994619;28;20526;-67
2022/07/13 13:45:31;;;;;;;0.87;0.87;;;35.30;36.10;;;;;;4994574;28;20457;-68
2022/07/13 13:47:58;;;;;;;1.70;0.80;;;35.20;36.30;;;;;;4994688;28;20516;-68
2022/07/13 13:50:25;;;;;;;1.13;1.00;;;35.10;35.30;;;;;;4994297;28;20948;-67
2022/07/13 13:52:52;;;;;;;0.93;0.80;;;35.10;35.40;;;;;;4994469;28;20480;-67
2022/07/13 13:55:20;;;;;;;1.60;0.80;;;35.10;35.00;;;;;;4994340;28;20457;-67
2022/07/13 13:57:48;;;;;;;1.70;1.60;;;35.10;34.40;;;;;;4994133;28;20846;-67
2022/07/13 14:00:14;;;;;;;0.60;0.60;;;34.80;33.70;;;;;;4994310;28;20814;-66
2022/07/13 14:02:42;;;;;;;0.70;0.70;;;34.70;33.10;;;;;;4994380;28;20469;-67
2022/07/13 14:05:09;;;;;;;0.93;0.90;;;34.50;33.40;;;;;;4994789;28;20453;-67
2022/07/13 14:07:36;;;;;;;0.97;0.97;;;34.30;33.40;;;;;;4994495;28;20460;-66
2022/07/13 14:10:05;;;;;;;0.90;0.90;;;34.10;33.90;;;;;;4994470;28;20492;-66
2022/07/13 14:12:34;;;;;;;1.93;1.00;;;34.00;34.00;;;;;;4994237;28;20480;-67
2022/07/13 14:15:01;;;;;;;0.80;0.80;;;33.90;34.60;;;;;;4994572;28;20480;-67
2022/07/13 14:17:28;;;;;;;1.00;1.00;;;33.80;34.50;;;;;;4994385;28;20493;-66
2022/07/13 14:19:54;;;;;;;2.60;1.10;;;33.60;34.80;;;;;;4994699;28;20461;-67
2022/07/13 14:22:21;;;;;;;1.67;0.90;;;33.50;35.70;;;;;;5001335;28;20472;-66
2022/07/13 14:24:50;;;;;;;2.57;1.17;;;33.40;36.50;;;;;;5010325;28;20453;-66
2022/07/13 14:27:17;;;;;;;1.20;1.10;;;33.20;36.10;;;;;;4998778;28;20512;-67
2022/07/13 14:29:45;;;;;;;2.73;0.90;;;33.10;37.40;;;;;;4994663;28;20457;-66
2022/07/13 14:32:13;;;;;;;0.90;0.90;;;33.00;36.20;;;;;;4997799;28;20531;-66
2022/07/13 14:34:40;;;;;;;2.87;1.00;;;32.90;37.10;;;;;;4997840;28;21015;-65
2022/07/13 14:37:07;;;;;;;1.60;1.00;;;32.80;36.00;;;;;;4997623;28;20461;-66
2022/07/13 14:39:34;;;;;;;1.20;1.00;;;32.70;35.70;;;;;;4997931;28;20511;-66
2022/07/13 14:42:01;;;;;;;1.33;0.70;;;32.70;37.10;;;;;;4997948;28;20481;-66
2022/07/13 14:44:28;;;;;;;1.13;0.97;;;32.70;36.00;;;;;;4998088;28;20493;-67
2022/07/13 14:46:56;;;;;;;1.63;1.37;;;32.70;38.60;;;;;;4997928;28;20456;-67
2022/07/13 14:49:23;;;;;;;2.70;1.37;;;32.60;37.40;;;;;;4997650;28;21011;-66
2022/07/13 14:51:50;;;;;;;0.90;0.90;;;32.60;37.50;;;;;;4998310;28;20473;-66
2022/07/13 14:54:17;;;;;;;1.27;1.27;;;32.60;38.20;;;;;;4997873;28;20453;-66
2022/07/13 14:56:44;;;;;;;3.17;1.30;;;32.60;39.00;;;;;;4997519;28;20976;-66
2022/07/13 14:59:10;;;;;;;1.43;1.13;;;32.50;39.50;;;;;;4998093;28;20468;-66
2022/07/13 15:01:37;;;;;;;1.13;1.03;;;32.30;38.80;;;;;;4997129;28;20485;-67
2022/07/13 15:04:06;;;;;;;1.17;0.70;;;32.10;39.30;;;;;;4997891;28;20523;-67
2022/07/13 15:06:33;;;;;;;1.00;1.00;;;31.90;41.20;;;;;;4997525;28;20913;-67
2022/07/13 15:09:00;;;;;;;2.93;1.57;;;31.70;39.80;;;;;;4997510;28;20530;-66
2022/07/13 15:11:26;;;;;;;2.50;1.00;;;31.50;40.10;;;;;;4997725;28;20481;-67
2022/07/13 15:13:53;;;;;;;3.00;1.47;;;31.40;40.80;;;;;;4997497;28;20477;-66
2022/07/13 15:16:20;;;;;;;2.30;0.80;;;31.20;42.30;;;;;;4997972;28;20457;-67
2022/07/13 15:18:46;;;;;;;1.17;0.73;;;31.10;43.70;;;;;;4997398;28;20944;-66
2022/07/13 15:21:14;;;;;;;1.00;1.00;;;31.00;43.30;;;;;;4997485;28;20474;-66
2022/07/13 15:23:41;;;;;;;2.07;0.90;;;30.90;43.80;;;;;;4998389;28;20453;-66
2022/07/13 15:26:08;;;;;;;1.80;1.03;;;31.00;44.10;;;;;;4997997;28;20449;-65
2022/07/13 15:28:34;;;;;;;0.80;0.80;;;31.00;43.30;;;;;;4997905;28;20845;-67
2022/07/13 15:31:01;;;;;;;2.57;1.10;;;30.90;44.40;;;;;;4997448;28;20473;-67
2022/07/13 15:33:28;;;;;;;2.93;0.83;;;30.90;43.80;;;;;;4997221;28;20473;-66
2022/07/13 15:35:55;;;;;;;1.10;1.00;;;31.00;44.30;;;;;;4997239;28;20457;-66
2022/07/13 15:38:23;;;;;;;3.50;0.93;;;31.10;44.70;;;;;;4997284;28;20481;-66
2022/07/13 15:43:33;;;;;;;2.37;1.00;;;31.20;43.30;;;;;;4997173;28;20755;-67
2022/07/13 15:46:00;;;;;;;1.47;1.07;;;31.20;43.90;;;;;;4997054;28;20960;-66
2022/07/13 15:48:27;;;;;;;2.37;1.30;;;31.30;43.40;;;;;;4996517;28;21000;-66
2022/07/13 15:50:53;;;;;;;1.53;1.10;;;31.30;44.10;;;;;;4996775;28;20992;-67
2022/07/13 15:53:20;;;;;;;1.00;1.00;;;31.30;45.20;;;;;;4996929;28;20473;-66
2022/07/13 15:55:48;;;;;;;2.80;0.80;;;31.30;45.00;;;;;;4996834;28;20527;-68
2022/07/13 15:58:15;;;;;;;2.30;1.00;;;31.30;45.10;;;;;;4996568;28;20544;-66
2022/07/13 16:00:41;;;;;;;2.77;1.07;;;31.30;43.70;;;;;;4996298;28;20485;-67
2022/07/13 16:03:08;;;;;;;1.73;1.30;;;31.30;44.60;;;;;;4996692;28;20446;-67
2022/07/13 16:05:35;;;;;;;3.00;2.23;;;31.20;43.10;;;;;;4996619;28;20454;-68
2022/07/13 16:08:01;;;;;;;2.50;1.30;;;31.00;43.70;;;;;;4996219;28;20453;-68
2022/07/13 16:10:28;;;;;;;1.20;1.20;;;30.90;42.80;;;;;;4996184;28;21016;-68
2022/07/13 16:12:56;;;;;;;3.97;1.60;;;30.80;43.60;;;;;;4996604;28;20477;-67
2022/07/13 16:15:23;;;;;;;1.10;1.00;;;30.70;43.00;;;;;;4996427;28;20453;-68
2022/07/13 16:17:51;;;;;;;2.20;0.97;;;30.70;44.10;;;;;;4996390;28;20775;-67
2022/07/13 16:20:18;;;;;;;1.27;1.00;;;30.60;42.60;;;;;;4996248;28;20938;-67
2022/07/13 16:22:45;;;;;;;1.27;1.17;;;30.50;43.40;;;;;;4996499;28;20454;-67
2022/07/13 16:25:12;;;;;;;1.93;1.07;;;30.40;44.60;;;;;;4996431;28;20512;-67
2022/07/13 16:27:39;;;;;;;1.27;1.17;;;30.30;44.60;;;;;;4996115;28;20453;-66
2022/07/13 16:30:08;;;;;;;1.90;0.93;;;30.30;43.80;;;;;;4996457;28;20804;-67
2022/07/13 16:32:35;;;;;;;0.80;0.80;;;30.20;45.30;;;;;;4996520;28;20477;-69
2022/07/13 16:35:02;;;;;;;1.73;0.80;;;30.10;44.00;;;;;;4997182;28;20905;-68
2022/07/13 16:37:29;;;;;;;1.77;1.00;;;30.00;45.50;;;;;;4996430;28;20787;-66
2022/07/13 16:39:55;;;;;;;1.53;1.10;;;30.00;46.10;;;;;;4996176;28;20458;-67
2022/07/13 16:42:22;;;;;;;0.93;0.93;;;29.90;46.80;;;;;;4996103;28;20477;-68
2022/07/13 16:44:49;;;;;;;2.93;1.00;;;29.90;47.90;;;;;;4996116;28;20458;-66
2022/07/13 16:47:17;;;;;;;1.90;1.17;;;29.80;47.90;;;;;;4995814;28;20458;-68
2022/07/13 16:49:44;;;;;;;2.87;1.00;;;29.70;47.50;;;;;;4996133;28;20453;-67
2022/07/13 16:52:12;;;;;;;3.20;1.33;;;29.70;46.40;;;;;;4996003;28;20473;-67
2022/07/13 16:54:38;;;;;;;1.67;1.17;;;29.60;47.10;;;;;;4995183;28;20835;-67
2022/07/13 16:57:05;;;;;;;2.20;1.03;;;29.60;47.10;;;;;;4995904;28;20458;-66
2022/07/13 16:59:32;;;;;;;3.97;1.20;;;29.60;46.80;;;;;;4996061;28;20517;-67
2022/07/13 17:01:59;;;;;;;3.17;1.40;;;29.60;47.50;;;;;;4995474;28;20504;-67
2022/07/13 17:04:27;;;;;;;1.30;1.30;;;29.60;47.80;;;;;;4995572;28;20477;-67
2022/07/13 17:06:54;;;;;;;2.73;0.97;;;29.60;49.30;;;;;;4995415;28;20481;-67